createdAt,value
2023-04-18T00:02:38.806Z,9.38
2023-04-18T00:07:38.566Z,9.03
2023-04-18T00:12:37.780Z,8.70
2023-04-18T00:17:40.137Z,8.64
2023-04-18T00:22:43.954Z,9.05
2023-04-18T00:27:43.006Z,9.13
2023-04-18T00:32:41.934Z,9.34
2023-04-18T00:37:40.916Z,9.24
2023-04-18T00:42:40.539Z,9.26
2023-04-18T00:47:39.497Z,9.22
2023-04-18T00:52:38.909Z,9.29
2023-04-18T00:57:38.328Z,9.33
2023-04-18T01:02:38.276Z,9.45
2023-04-18T01:07:40.788Z,9.53
2023-04-18T01:12:39.664Z,9.42
2023-04-18T01:17:38.509Z,9.52
2023-04-18T01:22:37.542Z,9.58
2023-04-18T01:27:40.269Z,9.52
2023-04-18T01:32:39.135Z,9.66
2023-04-18T01:37:38.029Z,9.58
2023-04-18T01:42:37.019Z,9.59
2023-04-18T01:47:36.002Z,9.66
2023-04-18T01:52:34.958Z,9.44
2023-04-18T01:57:36.664Z,9.43
2023-04-18T02:02:35.776Z,9.19
2023-04-18T02:07:36.055Z,9.20
2023-04-18T02:12:35.047Z,9.33
2023-04-18T02:22:34.331Z,9.35
2023-04-18T02:27:33.100Z,9.30
2023-04-18T02:32:32.170Z,9.18
2023-04-18T02:37:31.377Z,9.16
2023-04-18T02:42:30.780Z,9.14
2023-04-18T02:47:33.308Z,8.94
2023-04-18T02:52:34.225Z,9.00
2023-04-18T02:57:33.054Z,8.83
2023-04-18T03:02:46.385Z,8.78
2023-04-18T03:08:03.697Z,8.85
2023-04-18T03:13:03.114Z,8.63
2023-04-18T03:18:02.436Z,8.83
2023-04-18T03:23:05.793Z,8.91
2023-04-18T03:28:47.800Z,8.73
2023-04-18T03:33:49.176Z,8.75
2023-04-18T03:38:48.416Z,8.75
2023-04-18T03:43:47.153Z,8.77
2023-04-18T03:48:46.179Z,8.58
2023-04-18T03:53:45.121Z,8.93
2023-04-18T03:58:43.984Z,8.94
2023-04-18T04:03:43.171Z,9.06
2023-04-18T04:08:42.119Z,9.01
2023-04-18T04:13:41.185Z,8.91
2023-04-18T04:18:40.683Z,8.92
2023-04-18T04:23:42.665Z,11.78
2023-04-18T04:28:47.480Z,13.84
2023-04-18T04:33:50.600Z,14.14
2023-04-18T04:38:52.401Z,13.92
2023-04-18T04:43:57.858Z,13.46
2023-04-18T04:49:01.350Z,13.84
2023-04-18T04:54:00.600Z,13.45
2023-04-18T04:59:00.014Z,12.90
2023-04-18T05:04:18.407Z,10.60
2023-04-18T05:09:17.420Z,9.83
2023-04-18T05:14:17.639Z,9.80
2023-04-18T05:19:16.446Z,9.38
2023-04-18T05:24:15.302Z,9.46
2023-04-18T05:29:14.340Z,9.41
2023-04-18T05:34:13.418Z,9.13
2023-04-18T05:39:12.464Z,9.02
2023-04-18T05:44:11.337Z,8.96
2023-04-18T05:49:10.184Z,8.99
2023-04-18T05:54:08.903Z,9.14
2023-04-18T05:59:07.677Z,9.12
2023-04-18T06:04:07.570Z,8.82
2023-04-18T06:09:06.546Z,8.99
2023-04-18T06:14:05.574Z,9.07
2023-04-18T06:19:05.283Z,8.92
2023-04-18T06:24:04.245Z,8.81
2023-04-18T06:29:03.208Z,9.00
2023-04-18T06:34:01.917Z,8.96
2023-04-18T06:39:01.124Z,8.94
2023-04-18T06:44:04.225Z,8.94
2023-04-18T06:49:03.842Z,9.01
2023-04-18T06:54:02.672Z,9.00
2023-04-18T06:59:01.715Z,9.02
2023-04-18T07:04:00.932Z,9.03
2023-04-18T07:09:01.577Z,8.92
2023-04-18T07:14:00.445Z,8.96
2023-04-18T07:18:59.210Z,9.02
2023-04-18T07:23:57.954Z,9.02
2023-04-18T07:28:56.751Z,8.75
2023-04-18T07:33:55.649Z,8.69
2023-04-18T07:38:54.656Z,8.86
2023-04-18T07:43:53.534Z,8.82
2023-04-18T07:48:52.528Z,8.83
2023-04-18T07:53:51.386Z,8.64
2023-04-18T07:58:50.231Z,8.62
2023-04-18T08:03:49.411Z,9.11
2023-04-18T08:08:48.351Z,9.24
2023-04-18T08:13:47.289Z,9.35
2023-04-18T08:18:46.260Z,9.19
2023-04-18T08:23:46.669Z,9.31
2023-04-18T08:28:46.592Z,9.00
2023-04-18T08:33:45.575Z,9.33
2023-04-18T08:38:44.305Z,9.38
2023-04-18T08:43:48.071Z,9.56
2023-04-18T08:48:50.031Z,9.47
2023-04-18T08:53:50.656Z,9.62
2023-04-18T08:58:50.565Z,9.39
2023-04-18T09:03:50.495Z,9.34
2023-04-18T09:09:10.648Z,9.65
2023-04-18T09:14:24.276Z,9.70
2023-04-18T09:19:23.868Z,9.53
2023-04-18T09:24:24.956Z,9.54
2023-04-18T09:29:43.546Z,9.51
2023-04-18T09:34:42.715Z,9.60
2023-04-18T09:39:44.027Z,9.36
2023-04-18T09:45:04.113Z,9.34
2023-04-18T09:50:08.430Z,9.27
2023-04-18T09:55:09.701Z,9.28
2023-04-18T10:00:17.091Z,9.33
2023-04-18T10:05:19.509Z,9.44
2023-04-18T10:10:19.708Z,9.24
2023-04-18T10:15:21.426Z,9.12
2023-04-18T10:20:22.793Z,9.09
2023-04-18T10:25:39.931Z,9.25
2023-04-18T10:30:41.659Z,9.37
2023-04-18T10:36:03.138Z,9.32
2023-04-18T10:41:26.746Z,9.53
2023-04-18T10:46:32.564Z,9.89
2023-04-18T10:51:32.282Z,9.87
2023-04-18T10:56:31.303Z,9.81
2023-04-18T11:01:33.013Z,9.60
2023-04-18T11:06:32.398Z,9.64
2023-04-18T11:11:31.199Z,9.33
2023-04-18T11:16:32.723Z,9.52
2023-04-18T11:21:32.253Z,9.59
2023-04-18T11:26:31.056Z,9.61
2023-04-18T11:31:31.603Z,9.93
2023-04-18T11:36:35.193Z,9.85
2023-04-18T11:41:33.938Z,9.71
2023-04-18T11:46:39.648Z,9.70
2023-04-18T11:51:38.920Z,9.65
2023-04-18T11:56:47.480Z,9.61
2023-04-18T12:01:46.363Z,9.66
2023-04-18T12:06:46.607Z,9.83
2023-04-18T12:12:00.198Z,9.87
2023-04-18T12:16:58.933Z,9.64
2023-04-18T12:22:06.641Z,9.86
2023-04-18T12:27:05.484Z,9.82
2023-04-18T12:32:04.494Z,9.86
2023-04-18T12:37:04.927Z,9.85
2023-04-18T12:42:03.877Z,10.01
2023-04-18T12:47:02.753Z,9.84
2023-04-18T12:52:01.612Z,9.92
2023-04-18T12:57:01.883Z,9.90
2023-04-18T13:02:00.860Z,9.96
2023-04-18T13:06:59.699Z,10.02
2023-04-18T13:11:58.887Z,10.02
2023-04-18T13:16:57.820Z,9.81
2023-04-18T13:21:56.970Z,10.04
2023-04-18T13:26:56.555Z,9.75
2023-04-18T13:31:55.673Z,9.90
2023-04-18T13:36:54.476Z,10.06
2023-04-18T13:41:54.781Z,10.08
2023-04-18T13:46:54.548Z,10.09
2023-04-18T13:51:53.606Z,10.18
2023-04-18T13:56:59.541Z,10.37
2023-04-18T14:01:59.123Z,10.17
2023-04-18T14:06:58.048Z,10.21
2023-04-18T14:11:58.276Z,10.08
2023-04-18T14:16:57.299Z,10.22
2023-04-18T14:21:56.188Z,10.38
2023-04-18T14:26:55.014Z,10.30
2023-04-18T14:31:53.822Z,10.12
2023-04-18T14:36:52.728Z,10.36
2023-04-18T14:41:51.534Z,10.42
2023-04-18T14:46:50.832Z,10.34
2023-04-18T14:51:49.611Z,10.50
2023-04-18T14:56:48.397Z,10.52
2023-04-18T15:01:47.282Z,10.43
2023-04-18T15:06:46.438Z,10.50
2023-04-18T15:11:45.345Z,10.42
2023-04-18T15:16:44.304Z,10.54
2023-04-18T15:21:43.123Z,10.39
2023-04-18T15:26:42.281Z,10.48
2023-04-18T15:31:41.094Z,10.36
2023-04-18T15:36:39.923Z,10.29
2023-04-18T15:41:39.321Z,10.32
2023-04-18T15:46:38.556Z,10.39
2023-04-18T15:51:37.692Z,10.47
2023-04-18T15:56:36.949Z,10.48
2023-04-18T16:01:35.806Z,10.48
2023-04-18T16:06:34.580Z,10.55
2023-04-18T16:11:33.414Z,10.36
2023-04-18T16:16:34.316Z,10.30
2023-04-18T16:21:33.169Z,10.47
2023-04-18T16:26:31.970Z,10.50
2023-04-18T16:31:30.913Z,10.51
2023-04-18T16:36:29.726Z,10.27
2023-04-18T16:41:28.612Z,10.03
2023-04-18T16:46:31.352Z,9.91
2023-04-18T16:51:31.252Z,10.03
2023-04-18T16:56:30.061Z,10.68
2023-04-18T17:01:28.954Z,11.32
2023-04-18T17:06:27.846Z,10.54
2023-04-18T17:11:26.652Z,10.23
2023-04-18T17:16:26.244Z,10.04
2023-04-18T17:21:25.093Z,10.24
2023-04-18T17:26:25.756Z,10.40
2023-04-18T17:31:24.622Z,10.45
2023-04-18T17:36:24.760Z,10.51
2023-04-18T17:41:23.522Z,10.77
2023-04-18T17:46:22.262Z,10.65
2023-04-18T17:51:21.137Z,10.77
2023-04-18T17:56:22.117Z,10.82
2023-04-18T18:01:22.079Z,10.89
2023-04-18T18:06:21.266Z,11.04
2023-04-18T18:11:21.000Z,11.12
2023-04-18T18:16:20.452Z,10.88
2023-04-18T18:21:19.203Z,10.74
2023-04-18T18:26:17.984Z,10.52
2023-04-18T18:31:17.511Z,10.49
2023-04-18T18:36:16.477Z,10.81
2023-04-18T18:41:15.265Z,10.61
2023-04-18T18:46:18.177Z,10.56
2023-04-18T18:51:18.147Z,10.69
2023-04-18T18:56:16.920Z,10.63
2023-04-18T19:01:15.944Z,10.53
2023-04-18T19:06:14.974Z,10.24
2023-04-18T19:11:13.784Z,10.51
2023-04-18T19:16:12.968Z,10.28
2023-04-18T19:21:11.744Z,10.25
2023-04-18T19:26:10.545Z,10.31
2023-04-18T19:31:09.613Z,10.44
2023-04-18T19:36:08.432Z,10.53
2023-04-18T19:41:07.324Z,10.28
2023-04-18T19:46:06.196Z,10.64
2023-04-18T19:51:05.075Z,10.63
2023-04-18T19:56:05.035Z,10.67
2023-04-18T20:01:06.030Z,10.70
2023-04-18T20:06:05.716Z,10.65
2023-04-18T20:11:07.241Z,10.56
2023-04-18T20:16:07.443Z,10.67
2023-04-18T20:21:08.249Z,10.57
2023-04-18T20:26:07.118Z,10.59
2023-04-18T20:31:06.084Z,10.61
2023-04-18T20:36:06.485Z,10.72
2023-04-18T20:41:05.255Z,10.50
2023-04-18T20:46:04.065Z,10.35
2023-04-18T20:51:02.903Z,10.33
2023-04-18T20:56:03.105Z,10.60
2023-04-18T21:01:01.885Z,10.71
2023-04-18T21:06:00.659Z,10.71
2023-04-18T21:10:59.428Z,10.63
2023-04-18T21:15:58.427Z,10.77
2023-04-18T21:20:57.243Z,10.64
2023-04-18T21:25:56.082Z,10.86
2023-04-18T21:30:54.842Z,10.82
2023-04-18T21:35:53.693Z,10.54
2023-04-18T21:40:52.481Z,10.74
2023-04-18T21:45:51.298Z,10.34
2023-04-18T21:50:56.273Z,10.69
2023-04-18T21:55:55.084Z,10.61
2023-04-18T22:00:54.255Z,10.45
2023-04-18T22:05:53.387Z,10.70
2023-04-18T22:10:55.055Z,10.56
2023-04-18T22:15:53.966Z,10.44
2023-04-18T22:20:53.900Z,10.49
2023-04-18T22:25:52.792Z,10.32
2023-04-18T22:30:51.672Z,10.36
2023-04-18T22:35:50.564Z,10.39
2023-04-18T22:40:49.505Z,10.37
2023-04-18T22:45:48.494Z,10.25
2023-04-18T22:50:47.548Z,10.38
2023-04-18T22:55:46.735Z,10.39
2023-04-18T23:00:45.995Z,10.33
2023-04-18T23:05:44.754Z,10.39
2023-04-18T23:10:43.510Z,10.21
2023-04-18T23:15:42.431Z,10.09
2023-04-18T23:20:41.307Z,10.08
2023-04-18T23:25:40.142Z,10.14
2023-04-18T23:30:39.170Z,10.27
2023-04-18T23:35:37.982Z,10.31
2023-04-18T23:40:36.733Z,10.29
2023-04-18T23:45:36.600Z,10.42
2023-04-18T23:50:46.112Z,10.29
2023-04-18T23:55:46.223Z,10.22
